Terminal Aerodrome Forecast
Issued by NWS Raleigh/Durham, NC

Home | Current Version | Previous Version | Text Only | Print | Product List | Glossary On
Versions: 1 2 3 4 5 6 7 8 9 10 11 12 13 14 15 16 17 18 19 20 21 22 23 24 25 26 27 28 29 30 31 32 33 34 35 36 37 38
000
FTUS42 KRAH 271802 AAA
TAFGSO
TAF AMD
KGSO 271802Z 2718/2818 19009G16KT P6SM SCT110 BKN250
     FM272200 17005KT P6SM BKN110
     FM280500 16003KT P6SM OVC100 PROB30 2805/2809 -SHRA
     FM281100 VRB03KT P6SM BKN025 OVC080=

USA.gov is the U.S. government's official web portal to all federal, state and local government web resources and services.